Time;durP1;ratioP1;P1;durP2;ratioP2;P2;SDS_P1;SDS_P2;PMS_P1;PMS_P2;Temp;Humidity;BMP_temperature;BMP_pressure;BME280_temperature;BME280_humidity;BME280_pressure;Samples;Min_cycle;Max_cycle;Signal;HPM_P1;HPM_P2
2021/12/17 00:00:43;;;;;;;21.20;7.72;;;;;;;6.31;100.00;104084.81;4990531;28;20046;-72
2021/12/17 00:03:19;;;;;;;21.27;8.63;;;;;;;6.28;100.00;104085.59;4989264;28;20077;-73
2021/12/17 00:06:14;;;;;;;19.75;7.30;;;;;;;6.28;100.00;104085.59;4991231;28;20100;-73
2021/12/17 00:08:44;;;;;;;24.85;9.48;;;;;;;6.28;100.00;104093.56;4988921;28;21072;-73
2021/12/17 00:11:12;;;;;;;21.35;8.07;;;;;;;6.27;100.00;104085.53;4989694;28;20060;-73
2021/12/17 00:13:42;;;;;;;24.20;10.10;;;;;;;6.29;100.00;104086.50;4988631;28;20647;-73
2021/12/17 00:16:16;;;;;;;21.67;8.90;;;;;;;6.25;100.00;104080.19;4990085;28;20061;-74
2021/12/17 00:19:01;;;;;;;20.42;7.93;;;;;;;6.26;100.00;104092.56;4993572;28;20060;-74
2021/12/17 00:44:18;;;;;;;26.98;10.35;;;;;;;6.30;100.00;104094.53;4992614;28;20119;-73
2021/12/17 00:49:38;;;;;;;28.83;12.05;;;;;;;6.29;100.00;104086.50;4992262;28;20070;-73
2021/12/17 00:52:10;;;;;;;32.13;12.57;;;;;;;6.33;100.00;104089.34;4987685;28;20132;-73
2021/12/17 00:54:40;;;;;;;31.60;11.25;;;;;;;6.32;100.00;104078.66;4990130;28;20054;-73
2021/12/17 00:57:13;;;;;;;33.15;10.68;;;;;;;6.30;100.00;104078.59;4987253;28;20267;-73
2021/12/17 00:59:44;;;;;;;35.40;11.57;;;;;;;6.33;100.00;104081.38;4990069;28;20050;-73
2021/12/17 01:02:16;;;;;;;33.38;9.80;;;;;;;6.31;100.00;104088.34;4991897;28;20048;-73
2021/12/17 01:04:49;;;;;;;32.15;10.02;;;;;;;6.32;100.00;104086.63;4991354;28;20057;-74
2021/12/17 01:07:22;;;;;;;29.77;10.18;;;;;;;6.34;100.00;104092.88;4990239;28;20141;-73
2021/12/17 01:09:52;;;;;;;28.60;10.10;;;;;;;6.30;100.00;104088.28;4989798;28;20060;-74
2021/12/17 01:12:21;;;;;;;26.80;10.15;;;;;;;6.28;100.00;104084.69;4992229;28;20510;-74
2021/12/17 01:14:49;;;;;;;31.52;11.23;;;;;;;6.25;100.00;104087.22;4992234;28;20124;-74
2021/12/17 01:17:19;;;;;;;34.13;10.98;;;;;;;6.24;100.00;104088.06;4990723;28;20049;-74
2021/12/17 01:22:56;;;;;;;22.88;9.65;;;;;;;6.24;100.00;104088.06;4985860;28;20188;-74
2021/12/17 01:25:40;;;;;;;20.13;9.80;;;;;;;6.20;100.00;104087.06;4989377;28;20169;-74
2021/12/17 01:36:34;;;;;;;29.13;11.40;;;;;;;6.18;100.00;104083.44;4988657;28;20081;-74
2021/12/17 01:42:06;;;;;;;30.20;9.77;;;;;;;6.18;100.00;104080.81;4990440;28;20136;-73
2021/12/17 01:44:35;;;;;;;29.42;10.73;;;;;;;6.17;100.00;104082.53;4987070;28;20063;-72
2021/12/17 01:47:05;;;;;;;31.13;11.18;;;;;;;6.16;100.00;104088.69;4990551;28;20064;-73
2021/12/17 02:00:51;;;;;;;34.60;12.82;;;;;;;6.18;100.00;104083.44;4988451;28;20072;-72
2021/12/17 02:03:20;;;;;;;41.83;15.02;;;;;;;6.20;100.00;104081.75;4988149;28;20080;-73
2021/12/17 02:05:48;;;;;;;38.83;13.95;;;;;;;6.19;100.00;104077.28;4986766;28;20049;-73
2021/12/17 02:08:19;;;;;;;30.30;11.18;;;;;;;6.16;100.00;104088.69;4991542;28;20076;-72
2021/12/17 02:11:34;;;;;;;33.83;13.35;;;;;;;6.17;100.00;104084.28;4988170;28;20180;-72
2021/12/17 02:19:45;;;;;;;36.50;13.73;;;;;;;6.18;100.00;104080.81;4969973;28;20383;-72
2021/12/17 02:31:01;;;;;;;38.70;16.42;;;;;;;6.20;100.00;104071.16;4987364;28;20053;-72
2021/12/17 02:33:29;;;;;;;36.95;18.38;;;;;;;6.20;100.00;104068.50;4990841;28;20213;-69
2021/12/17 02:35:57;;;;;;;38.63;18.27;;;;;;;6.22;100.00;104064.16;4994277;28;20065;-69
2021/12/17 02:38:29;;;;;;;33.70;16.60;;;;;;;6.22;100.00;104066.81;4992835;28;20068;-71
2021/12/17 02:46:36;;;;;;;33.53;15.95;;;;;;;6.23;100.00;104075.66;4993238;28;20057;-70
2021/12/17 02:49:05;;;;;;;36.85;17.13;;;;;;;6.24;100.00;104073.06;4992201;28;20128;-70
2021/12/17 02:51:33;;;;;;;42.92;17.20;;;;;;;6.27;100.00;104074.94;4993030;28;20058;-72
2021/12/17 02:54:02;;;;;;;48.65;19.70;;;;;;;6.28;100.00;104077.66;4990067;28;21025;-73
2021/12/17 02:56:30;;;;;;;49.00;19.60;;;;;;;6.28;100.00;104075.00;4993447;28;20057;-73
2021/12/17 02:58:58;;;;;;;48.58;20.65;;;;;;;6.30;100.00;104077.69;4991623;28;20496;-73
2021/12/17 03:01:26;;;;;;;43.78;20.92;;;;;;;6.30;100.00;104075.94;4991466;28;20053;-72
2021/12/17 03:03:58;;;;;;;39.03;19.33;;;;;;;6.34;100.00;104074.31;4993339;28;20062;-72
2021/12/17 03:06:26;;;;;;;40.33;18.80;;;;;;;6.33;100.00;104072.50;4993546;28;20065;-73
2021/12/17 03:08:53;;;;;;;42.08;21.23;;;;;;;6.32;100.00;104065.41;4989509;28;20283;-70
2021/12/17 03:11:23;;;;;;;38.88;17.80;;;;;;;6.38;100.00;104059.41;4990954;28;20049;-70
2021/12/17 03:13:52;;;;;;;43.70;18.65;;;;;;;6.36;100.00;104059.34;4991116;28;20054;-70
2021/12/17 03:16:29;;;;;;;35.88;16.83;;;;;;;6.38;100.00;104056.75;4992801;28;20064;-69
2021/12/17 03:19:09;;;;;;;40.17;18.63;;;;;;;6.38;100.00;104060.31;4990072;28;20052;-69
2021/12/17 03:24:22;;;;;;;48.83;20.85;;;;;;;6.42;100.00;104064.91;4993185;28;20108;-70
2021/12/17 03:26:52;;;;;;;44.22;19.92;;;;;;;6.43;100.00;104060.47;4990565;28;20206;-69
2021/12/17 03:29:20;;;;;;;48.97;20.63;;;;;;;6.45;100.00;104065.00;4990329;28;20140;-70
2021/12/17 03:31:48;;;;;;;42.72;20.90;;;;;;;6.49;100.00;104061.59;4991859;28;20226;-69
2021/12/17 03:34:20;;;;;;;50.95;20.75;;;;;;;6.50;100.00;104073.13;4992648;28;20189;-70
2021/12/17 03:36:53;;;;;;;48.58;21.33;;;;;;;6.51;100.00;104074.94;4990981;28;20054;-69
2021/12/17 03:39:23;;;;;;;46.65;20.60;;;;;;;6.54;100.00;104070.63;4992296;28;20046;-70
2021/12/17 03:41:52;;;;;;;54.78;22.48;;;;;;;6.52;100.00;104071.41;4989277;28;20545;-69
2021/12/17 03:44:21;;;;;;;72.57;26.58;;;;;;;6.53;100.00;104075.88;4990481;28;20050;-69
2021/12/17 03:46:51;;;;;;;69.78;26.13;;;;;;;6.53;100.00;104067.94;4990858;28;20093;-70
2021/12/17 03:49:22;;;;;;;63.80;25.17;;;;;;;6.52;100.00;104066.09;4987885;28;20677;-69
2021/12/17 03:51:53;;;;;;;52.50;21.60;;;;;;;6.48;100.00;104064.19;4991566;28;20575;-70
2021/12/17 03:54:21;;;;;;;50.63;21.33;;;;;;;6.45;100.00;104062.34;4986802;28;20486;-69
2021/12/17 03:56:49;;;;;;;52.75;22.33;;;;;;;6.45;100.00;104067.66;4992519;28;20494;-69
2021/12/17 03:59:18;;;;;;;51.33;24.17;;;;;;;6.44;100.00;104075.56;4988790;28;20054;-69
2021/12/17 04:01:46;;;;;;;59.30;24.35;;;;;;;6.42;100.00;104072.84;4989228;28;20046;-70
2021/12/17 04:04:13;;;;;;;46.15;22.38;;;;;;;6.42;100.00;104075.50;4990981;28;20108;-69
2021/12/17 04:06:41;;;;;;;57.53;24.25;;;;;;;6.46;100.00;104068.56;4992606;28;20109;-70
2021/12/17 04:09:09;;;;;;;55.95;25.30;;;;;;;6.47;100.00;104075.66;4991686;28;20120;-69
2021/12/17 04:11:37;;;;;;;57.28;26.88;;;;;;;6.46;100.00;104081.81;4988347;28;20502;-69
2021/12/17 04:14:05;;;;;;;62.10;27.75;;;;;;;6.44;100.00;104084.41;4989820;28;20049;-70
2021/12/17 04:16:35;;;;;;;66.18;26.27;;;;;;;6.45;100.00;104086.22;4990645;28;20565;-69
2021/12/17 04:19:04;;;;;;;51.33;23.33;;;;;;;6.48;100.00;104085.44;4989107;28;20052;-70
2021/12/17 04:21:32;;;;;;;58.72;24.80;;;;;;;6.54;100.00;104077.69;4990859;28;20058;-69
2021/12/17 04:23:59;;;;;;;46.75;19.55;;;;;;;6.54;100.00;104083.00;4992629;28;20514;-69
2021/12/17 04:26:28;;;;;;;42.65;19.73;;;;;;;6.57;100.00;104084.84;4987698;28;20232;-72
2021/12/17 04:28:55;;;;;;;50.15;19.45;;;;;;;6.48;100.00;104075.72;4991663;28;20058;-72
2021/12/17 04:31:27;;;;;;;48.15;19.92;;;;;;;6.45;100.00;104072.97;4989366;28;20076;-72
2021/12/17 04:33:56;;;;;;;47.03;20.27;;;;;;;6.42;100.00;104082.53;4993588;28;20077;-73
2021/12/17 04:36:28;;;;;;;40.13;17.35;;;;;;;6.39;100.00;104082.44;4987255;28;20508;-73
2021/12/17 04:38:59;;;;;;;43.63;17.20;;;;;;;6.40;100.00;104087.78;4990749;28;20069;-73
2021/12/17 04:44:19;;;;;;;35.88;14.77;;;;;;;6.39;100.00;104087.75;4987641;28;20042;-74
2021/12/17 04:46:52;;;;;;;31.92;14.65;;;;;;;6.43;100.00;104089.66;4990713;28;20057;-72
2021/12/17 04:57:56;;;;;;;26.98;12.35;;;;;;;6.38;100.00;104085.94;4967816;28;20210;-69
2021/12/17 05:00:26;;;;;;;30.65;13.77;;;;;;;6.32;100.00;104079.56;4970746;28;20047;-71
2021/12/17 05:02:57;;;;;;;34.00;13.60;;;;;;;6.36;100.00;104084.13;4980830;28;20054;-71
2021/12/17 05:05:31;;;;;;;31.75;14.27;;;;;;;6.28;100.00;104075.00;4991116;28;20109;-71
2021/12/17 05:08:02;;;;;;;;;;;;;;;6.24;100.00;104078.38;4989735;28;20140;-70
2021/12/17 05:10:48;;;;;;;30.52;14.18;;;;;;;6.23;100.00;104080.94;4988482;28;19935;-71
2021/12/17 05:18:53;;;;;;;30.40;13.90;;;;;;;6.24;100.00;104078.38;4989271;28;20054;-71
2021/12/17 05:21:24;;;;;;;30.58;14.60;;;;;;;6.25;100.00;104084.56;4990687;28;20053;-71
2021/12/17 05:23:52;;;;;;;30.27;14.20;;;;;;;6.26;100.00;104081.97;4989780;28;20053;-70
2021/12/17 05:26:22;;;;;;;30.92;12.10;;;;;;;6.26;100.00;104075.78;4988885;28;20050;-70
2021/12/17 05:28:52;;;;;;;27.50;10.77;;;;;;;6.28;100.00;104069.69;4988093;28;20112;-70
2021/12/17 05:31:21;;;;;;;23.58;9.50;;;;;;;6.27;100.00;104074.94;4987199;28;20577;-70
2021/12/17 05:33:51;;;;;;;28.30;11.60;;;;;;;6.26;100.00;104074.00;4988106;28;20060;-71
2021/12/17 05:36:20;;;;;;;24.30;9.98;;;;;;;6.27;100.00;104069.63;4990544;28;20462;-70
2021/12/17 05:38:50;;;;;;;25.08;9.13;;;;;;;6.24;100.00;104067.75;4989305;28;20111;-71
2021/12/17 05:41:18;;;;;;;23.27;10.07;;;;;;;6.27;100.00;104069.63;4989683;28;20045;-71
2021/12/17 05:43:54;;;;;;;26.52;10.50;;;;;;;6.26;100.00;104075.78;4990444;28;20741;-71
2021/12/17 05:46:37;;;;;;;29.13;10.50;;;;;;;6.27;100.00;104082.91;4988406;28;20111;-69
2021/12/17 05:49:05;;;;;;;32.70;11.75;;;;;;;6.28;100.00;104087.34;4990071;28;20060;-69
2021/12/17 05:51:33;;;;;;;30.20;12.43;;;;;;;6.29;100.00;104087.38;4986531;28;20064;-71
2021/12/17 05:54:03;;;;;;;30.45;11.90;;;;;;;6.32;100.00;104091.94;4987437;28;20157;-70
2021/12/17 05:56:30;;;;;;;33.60;12.80;;;;;;;6.31;100.00;104091.00;4988560;28;20537;-71
2021/12/17 05:58:58;;;;;;;31.63;12.48;;;;;;;6.30;100.00;104090.94;4991119;28;20215;-70
2021/12/17 06:01:26;;;;;;;38.00;13.13;;;;;;;6.32;100.00;104083.97;4988390;28;20056;-71
2021/12/17 06:03:54;;;;;;;32.92;14.27;;;;;;;6.38;100.00;104083.28;4990612;28;20050;-71
2021/12/17 06:06:29;;;;;;;33.60;13.50;;;;;;;6.33;100.00;104094.63;4990832;28;20526;-71
2021/12/17 06:08:57;;;;;;;27.83;12.70;;;;;;;6.34;100.00;104093.78;4989696;28;20093;-71
2021/12/17 06:11:26;;;;;;;30.90;12.52;;;;;;;6.40;100.00;104092.19;4987300;28;20399;-71
2021/12/17 06:13:54;;;;;;;31.25;12.57;;;;;;;6.36;100.00;104099.13;4990732;28;20143;-69
2021/12/17 06:16:22;;;;;;;34.50;13.10;;;;;;;6.31;100.00;104098.06;4987178;28;20046;-71
2021/12/17 06:18:51;;;;;;;30.25;12.10;;;;;;;6.35;100.00;104105.28;4991519;28;20054;-72
2021/12/17 06:21:19;;;;;;;36.72;12.25;;;;;;;6.37;100.00;104106.25;4988589;28;20116;-74
2021/12/17 06:23:47;;;;;;;29.90;11.13;;;;;;;6.39;100.00;104109.88;4988658;28;20554;-72
2021/12/17 06:26:15;;;;;;;30.63;10.95;;;;;;;6.34;100.00;104111.44;4988164;28;20505;-70
2021/12/17 06:28:49;;;;;;;30.70;12.15;;;;;;;6.38;100.00;104112.47;4987157;28;20062;-70
2021/12/17 06:31:20;;;;;;;28.95;10.75;;;;;;;6.32;100.00;104115.78;4987521;28;20054;-73
2021/12/17 06:33:48;;;;;;;28.88;10.95;;;;;;;6.34;100.00;104119.41;4989698;28;20085;-73
2021/12/17 06:36:16;;;;;;;32.45;12.02;;;;;;;6.38;100.00;104121.31;4988045;28;20050;-74
2021/12/17 06:38:44;;;;;;;38.55;12.63;;;;;;;6.39;100.00;104116.94;4988236;28;20157;-73
2021/12/17 06:41:12;;;;;;;29.13;10.60;;;;;;;6.33;100.00;104115.84;4986561;28;20054;-73
2021/12/17 06:43:42;;;;;;;33.78;11.68;;;;;;;6.33;100.00;104122.88;4986494;28;20046;-72
2021/12/17 06:46:21;;;;;;;33.65;11.60;;;;;;;6.38;100.00;104126.63;4989267;28;20060;-74
2021/12/17 06:48:56;;;;;;;35.15;12.98;;;;;;;6.33;100.00;104123.81;4988157;28;20653;-72
2021/12/17 06:59:48;;;;;;;35.15;13.95;;;;;;;6.30;100.00;104106.84;4990256;28;20144;-73
2021/12/17 07:08:57;;;;;;;38.05;12.25;;;;;;;6.33;100.00;104121.16;4989650;28;20159;-73
2021/12/17 07:10:58;;;;;;;37.15;12.48;;;;;;;6.36;100.00;104117.69;4988133;28;20192;-73
2021/12/17 07:21:59;;;;;;;38.38;12.77;;;;;;;6.39;100.00;104127.53;4984240;28;20072;-73
2021/12/17 07:24:49;;;;;;;35.00;11.57;;;;;;;6.39;100.00;104131.09;4990434;28;20053;-73
2021/12/17 07:33:09;;;;;;;39.33;13.07;;;;;;;6.35;100.00;104131.81;4992877;28;20061;-73
2021/12/17 07:35:43;;;;;;;36.13;10.60;;;;;;;6.34;100.00;104128.25;4994080;28;20060;-73
2021/12/17 07:40:56;;;;;;;33.45;10.82;;;;;;;6.37;100.00;104138.09;4989589;28;20407;-73
2021/12/17 07:43:34;;;;;;;36.08;11.18;;;;;;;6.35;100.00;104143.34;4989564;28;20089;-73
2021/12/17 07:46:04;;;;;;;35.13;12.05;;;;;;;6.38;100.00;104139.00;4991276;28;20046;-72
2021/12/17 07:48:33;;;;;;;37.03;12.68;;;;;;;6.35;100.00;104148.66;4992522;28;20056;-73
2021/12/17 07:51:05;;;;;;;35.28;10.98;;;;;;;6.35;100.00;104147.72;4990928;28;20175;-73
2021/12/17 07:53:38;;;;;;;31.10;10.05;;;;;;;6.35;100.00;104153.94;4988402;28;20222;-73
2021/12/17 07:56:09;;;;;;;33.00;11.73;;;;;;;6.37;100.00;104148.72;4992182;28;20053;-73
2021/12/17 07:58:37;;;;;;;36.70;12.35;;;;;;;6.35;100.00;104146.00;4992170;28;20741;-73
2021/12/17 08:01:08;;;;;;;33.72;10.57;;;;;;;6.39;100.00;104154.06;4993570;28;20140;-73
2021/12/17 08:03:36;;;;;;;33.55;10.98;;;;;;;6.40;100.00;104158.50;4991092;28;20065;-73
2021/12/17 08:06:07;;;;;;;29.48;9.75;;;;;;;6.41;100.00;104161.22;4992463;28;20081;-73
2021/12/17 08:08:35;;;;;;;30.88;10.90;;;;;;;6.46;100.00;104158.75;4995197;28;20054;-73
2021/12/17 08:11:04;;;;;;;31.92;10.27;;;;;;;6.44;100.00;104157.81;4989741;28;20073;-72
2021/12/17 08:13:35;;;;;;;31.80;10.05;;;;;;;6.44;100.00;104160.47;4989908;28;20086;-73
2021/12/17 08:16:27;;;;;;;23.50;9.32;;;;;;;6.45;100.00;104163.16;4990655;28;20133;-73
2021/12/17 08:23:06;;;;;;;34.53;11.50;;;;;;;6.45;100.00;104159.59;4990913;28;20133;-73
2021/12/17 08:24:54;;;;;;;32.42;10.80;;;;;;;6.43;100.00;104156.88;4994202;28;20439;-73
2021/12/17 08:27:32;;;;;;;33.03;11.52;;;;;;;6.45;100.00;104170.19;4987328;28;20050;-73
2021/12/17 08:32:47;;;;;;;31.10;10.27;;;;;;;6.46;100.00;104159.66;4991311;28;20046;-73
2021/12/17 08:35:15;;;;;;;34.38;11.65;;;;;;;6.50;100.00;104155.38;4993363;28;20058;-73
2021/12/17 08:37:45;;;;;;;29.15;10.32;;;;;;;6.51;100.00;104155.41;4989758;28;20149;-72
2021/12/17 08:40:13;;;;;;;32.03;10.23;;;;;;;6.53;100.00;104151.06;4991047;28;20061;-73
2021/12/17 08:42:41;;;;;;;26.98;9.35;;;;;;;6.57;100.00;104151.19;4995105;28;20125;-70
2021/12/17 08:45:10;;;;;;;28.42;11.07;;;;;;;6.57;100.00;104146.78;4993359;28;20053;-70
2021/12/17 08:47:40;;;;;;;32.47;11.45;;;;;;;6.61;100.00;104146.06;4990556;28;20288;-70
2021/12/17 08:50:11;;;;;;;30.52;10.20;;;;;;;6.64;100.00;104154.16;4989545;28;20042;-70
2021/12/17 08:52:40;;;;;;;28.48;10.40;;;;;;;6.65;100.00;104145.31;4992007;28;20049;-70
2021/12/17 08:55:11;;;;;;;32.13;10.45;;;;;;;6.68;100.00;104145.44;4987036;28;20490;-70
2021/12/17 08:57:39;;;;;;;28.98;10.15;;;;;;;6.73;100.00;104137.66;4989585;28;20100;-70
2021/12/17 09:00:09;;;;;;;30.35;10.05;;;;;;;6.78;100.00;104141.38;4992720;28;20097;-70
2021/12/17 09:02:38;;;;;;;32.58;10.10;;;;;;;6.79;100.00;104150.22;4989131;28;20052;-70
2021/12/17 09:05:09;;;;;;;26.02;8.63;;;;;;;6.80;100.00;104158.25;4990326;28;20202;-71
2021/12/17 09:07:37;;;;;;;28.85;9.57;;;;;;;6.82;100.00;104156.56;4990919;28;20058;-70
2021/12/17 09:10:06;;;;;;;30.75;9.50;;;;;;;6.83;100.00;104165.44;4991829;28;20132;-70
2021/12/17 09:12:39;;;;;;;30.08;10.18;;;;;;;6.83;100.00;104160.13;4992175;28;20212;-70
2021/12/17 09:15:08;;;;;;;27.20;10.88;;;;;;;6.84;100.00;104153.97;4989061;28;20050;-70
2021/12/17 09:17:37;;;;;;;27.15;8.93;;;;;;;6.89;100.00;104160.34;4990783;28;20133;-70
2021/12/17 09:20:06;;;;;;;28.98;9.40;;;;;;;6.90;100.00;104160.41;4989543;28;20100;-73
2021/12/17 09:22:36;;;;;;;24.58;9.23;;;;;;;6.92;100.00;104161.34;4989114;28;20145;-73
2021/12/17 09:25:04;;;;;;;27.42;8.68;;;;;;;6.95;100.00;104157.91;4989040;28;20058;-73
2021/12/17 09:27:32;;;;;;;28.83;10.45;;;;;;;6.98;100.00;104163.34;4991113;28;20050;-72
2021/12/17 09:30:02;;;;;;;28.33;9.57;;;;;;;7.00;100.00;104164.28;4989278;28;20054;-72
2021/12/17 09:32:30;;;;;;;30.80;9.60;;;;;;;7.01;100.00;104165.19;4993819;28;20485;-72
2021/12/17 09:34:58;;;;;;;27.00;9.95;;;;;;;7.05;100.00;104165.38;4992487;28;20077;-73
2021/12/17 09:37:26;;;;;;;33.78;10.18;;;;;;;7.07;100.00;104171.63;4991255;28;20053;-72
2021/12/17 09:39:53;;;;;;;26.88;9.60;;;;;;;7.08;100.00;104175.16;4991081;28;20049;-69
2021/12/17 09:42:21;;;;;;;26.92;8.65;;;;;;;7.11;100.00;104178.84;4991623;28;20148;-69
2021/12/17 09:44:49;;;;;;;29.15;9.18;;;;;;;7.15;100.00;104184.25;4989616;28;20057;-69
2021/12/17 09:47:18;;;;;;;21.98;8.52;;;;;;;7.13;100.00;104181.56;4990641;28;20119;-70
2021/12/17 09:49:47;;;;;;;26.08;8.45;;;;;;;7.19;100.00;104181.78;4990593;28;20050;-73
2021/12/17 09:52:15;;;;;;;27.65;9.00;;;;;;;7.26;100.00;104185.56;4991548;28;20049;-72
2021/12/17 09:54:42;;;;;;;24.60;9.10;;;;;;;7.18;100.00;104192.34;4993127;28;20152;-72
2021/12/17 09:57:10;;;;;;;22.35;8.07;;;;;;;7.21;100.00;104193.34;4985889;28;20882;-73
2021/12/17 09:59:39;;;;;;;30.55;10.00;;;;;;;7.20;100.00;104191.56;4993664;28;20056;-73
2021/12/17 10:02:09;;;;;;;22.85;7.60;;;;;;;7.21;100.00;104192.47;4989799;28;20171;-72
2021/12/17 10:04:42;;;;;;;22.27;8.20;;;;;;;7.22;100.00;104189.88;4988676;28;20475;-73
2021/12/17 10:07:21;;;;;;;20.02;6.97;;;;;;;7.21;100.00;104190.69;4990419;28;20046;-73
2021/12/17 10:09:51;;;;;;;23.38;7.63;;;;;;;7.20;100.00;104196.88;4988791;28;20172;-72
2021/12/17 10:12:23;;;;;;;23.50;7.95;;;;;;;7.26;100.00;104191.75;4989862;28;20085;-72
2021/12/17 10:15:05;;;;;;;23.70;7.72;;;;;;;7.28;100.00;104202.44;4989190;28;20504;-73
2021/12/17 10:17:33;;;;;;;22.95;8.35;;;;;;;7.26;100.00;104202.38;4990953;28;20397;-72
2021/12/17 10:20:04;;;;;;;18.77;6.30;;;;;;;7.24;100.00;104203.19;4991511;28;20494;-72
2021/12/17 10:22:32;;;;;;;15.02;5.38;;;;;;;7.25;100.00;104207.66;4992019;28;20052;-72
2021/12/17 10:25:04;;;;;;;18.52;7.00;;;;;;;7.25;100.00;104205.91;4990497;28;20060;-72
2021/12/17 10:27:34;;;;;;;14.43;5.72;;;;;;;7.24;100.00;104206.75;4988362;28;20401;-72
2021/12/17 10:30:12;;;;;;;16.17;6.32;;;;;;;7.25;100.00;104211.22;4990784;28;20657;-72
2021/12/17 10:32:43;;;;;;;14.55;5.90;;;;;;;7.32;100.00;104214.09;4988435;28;20141;-73
2021/12/17 10:35:14;;;;;;;12.82;4.80;;;;;;;7.29;100.00;104215.78;4988216;28;20077;-72
2021/12/17 10:37:44;;;;;;;13.75;5.10;;;;;;;7.34;100.00;104209.72;4986664;28;20553;-72
2021/12/17 10:40:21;;;;;;;10.70;4.50;;;;;;;7.29;100.00;104213.13;4989797;28;20065;-72
2021/12/17 10:42:58;;;;;;;13.82;4.85;;;;;;;7.36;100.00;104211.59;4987291;28;20047;-72
2021/12/17 10:45:29;;;;;;;15.95;5.43;;;;;;;7.41;100.00;104212.66;4989228;28;20069;-72
2021/12/17 10:48:24;;;;;;;15.35;5.25;;;;;;;7.41;100.00;104214.44;4985997;28;20057;-72
2021/12/17 10:50:55;;;;;;;14.45;5.65;;;;;;;7.38;100.00;104216.97;4989831;28;20054;-73
2021/12/17 10:53:25;;;;;;;12.40;4.70;;;;;;;7.40;100.00;104213.50;4991512;28;20509;-72
2021/12/17 10:55:54;;;;;;;13.10;4.20;;;;;;;7.34;100.00;104213.31;4992508;28;20057;-72
2021/12/17 10:58:23;;;;;;;10.43;4.35;;;;;;;7.40;100.00;104221.47;4992137;28;20054;-70
2021/12/17 11:00:58;;;;;;;10.52;4.50;;;;;;;7.40;100.00;104223.22;4991413;28;20058;-69
2021/12/17 11:03:26;;;;;;;9.05;3.80;;;;;;;7.38;100.00;104214.31;4995212;28;20042;-70
2021/12/17 11:05:56;;;;;;;10.80;4.43;;;;;;;7.35;100.00;104209.78;4989970;28;20057;-69
2021/12/17 11:08:37;;;;;;;12.10;3.75;;;;;;;7.35;100.00;104212.44;4993896;28;20503;-72
2021/12/17 11:11:10;;;;;;;10.10;4.22;;;;;;;7.34;100.00;104209.72;4991694;28;20065;-73
2021/12/17 11:13:55;;;;;;;15.02;5.15;;;;;;;7.43;100.00;104207.41;4989738;28;20345;-73
2021/12/17 11:16:24;;;;;;;10.70;4.07;;;;;;;7.44;100.00;104209.19;4995995;28;20081;-73
2021/12/17 11:18:52;;;;;;;13.05;4.45;;;;;;;7.46;100.00;104211.06;4991097;28;20061;-72
2021/12/17 11:21:23;;;;;;;12.57;4.55;;;;;;;7.52;100.00;104209.47;4993366;28;20557;-69
2021/12/17 11:23:52;;;;;;;12.68;4.60;;;;;;;7.51;100.00;104211.22;4993715;28;20109;-69
2021/12/17 11:26:21;;;;;;;7.97;3.58;;;;;;;7.45;100.00;104201.28;4996090;28;20050;-70
2021/12/17 11:28:50;;;;;;;12.85;4.75;;;;;;;7.45;100.00;104205.69;4991656;28;20074;-70
2021/12/17 11:31:20;;;;;;;10.32;4.03;;;;;;;7.46;100.00;104195.13;4995217;28;20112;-69
2021/12/17 11:33:49;;;;;;;11.60;4.95;;;;;;;7.41;100.00;104202.03;4993214;28;20049;-70
2021/12/17 11:36:18;;;;;;;8.40;3.30;;;;;;;7.44;100.00;104194.16;4994694;28;20502;-70
2021/12/17 11:39:01;;;;;;;10.43;3.92;;;;;;;7.41;100.00;104194.06;4992520;28;20054;-70
2021/12/17 11:41:45;;;;;;;10.07;4.43;;;;;;;7.44;100.00;104194.16;4993899;28;20280;-70
2021/12/17 11:44:14;;;;;;;9.38;4.00;;;;;;;7.44;100.00;104177.31;4990804;28;23246;-71
2021/12/17 11:46:43;;;;;;;8.43;3.70;;;;;;;7.42;100.00;104182.59;4992957;28;20054;-75
2021/12/17 11:49:16;;;;;;;10.10;3.28;;;;;;;7.38;100.00;104188.63;4992982;28;20128;-74
2021/12/17 11:51:54;;;;;;;8.75;3.85;;;;;;;7.35;100.00;104188.53;4993837;28;20140;-72
2021/12/17 11:54:30;;;;;;;8.77;3.97;;;;;;;7.38;100.00;104188.63;4990145;28;20150;-73
2021/12/17 11:57:06;;;;;;;6.57;2.58;;;;;;;7.37;100.00;104178.88;4992399;28;20081;-73
2021/12/17 11:59:38;;;;;;;9.45;3.08;;;;;;;7.32;100.00;104183.13;4994217;28;20049;-72
2021/12/17 12:02:11;;;;;;;5.80;2.90;;;;;;;7.30;100.00;104184.81;4994963;28;20144;-72
2021/12/17 12:04:45;;;;;;;7.03;3.10;;;;;;;7.29;100.00;104178.59;5005645;28;20482;-70
2021/12/17 12:07:16;;;;;;;9.57;3.15;;;;;;;7.32;100.00;104187.50;4995623;28;20092;-70
2021/12/17 12:09:59;;;;;;;9.52;3.83;;;;;;;7.31;100.00;104189.28;4994269;28;20121;-71
2021/12/17 12:12:52;;;;;;;8.38;3.00;;;;;;;7.31;100.00;104181.31;4989105;28;20521;-70
2021/12/17 12:15:38;;;;;;;10.13;3.67;;;;;;;7.21;100.00;104190.69;4989574;28;20058;-72
2021/12/17 12:18:09;;;;;;;12.02;4.53;;;;;;;7.25;100.00;104192.63;4993018;28;20561;-71
2021/12/17 12:21:02;;;;;;;10.95;4.90;;;;;;;7.23;100.00;104190.75;4989677;28;20050;-71
2021/12/17 12:23:45;;;;;;;10.55;4.32;;;;;;;7.18;100.00;104198.56;4989232;28;20042;-70
2021/12/17 12:26:25;;;;;;;11.40;4.18;;;;;;;7.23;100.00;104190.75;4991486;28;20797;-70
2021/12/17 12:31:54;;;;;;;11.63;4.70;;;;;;;7.25;100.00;104194.38;4991557;28;20144;-71
2021/12/17 12:34:37;;;;;;;9.50;4.40;;;;;;;7.21;100.00;104195.13;4991567;28;20050;-71
2021/12/17 12:37:13;;;;;;;11.00;4.83;;;;;;;7.13;100.00;104196.59;4986692;28;21365;-72
2021/12/17 12:40:16;;;;;;;8.57;4.40;;;;;;;7.14;100.00;104198.41;4994190;28;20066;-72
2021/12/17 12:45:40;;;;;;;10.77;5.60;;;;;;;7.03;100.00;104196.28;4991718;28;20050;-72
2021/12/17 12:48:28;;;;;;;10.43;4.97;;;;;;;7.03;100.00;104206.91;4990976;28;20520;-72
2021/12/17 12:51:17;;;;;;;9.75;4.05;;;;;;;7.04;100.00;104203.38;4991200;28;20156;-71
2021/12/17 12:54:11;;;;;;;11.23;4.50;;;;;;;7.04;100.00;104192.75;4992076;28;20156;-71
2021/12/17 12:56:41;;;;;;;7.32;3.47;;;;;;;7.07;100.00;104190.22;4992501;28;20054;-70
2021/12/17 12:59:25;;;;;;;7.47;3.60;;;;;;;7.05;100.00;104193.69;4963682;28;20595;-71
2021/12/17 13:01:54;;;;;;;8.88;4.63;;;;;;;7.09;100.00;104182.31;4990143;28;20400;-70
2021/12/17 13:04:30;;;;;;;10.60;4.22;;;;;;;7.11;100.00;104177.94;4993239;28;20116;-73
2021/12/17 13:07:02;;;;;;;13.18;4.90;;;;;;;7.00;100.00;104177.56;4994022;28;20093;-72
2021/12/17 13:09:33;;;;;;;14.40;5.50;;;;;;;6.94;100.00;104168.47;4989692;28;20127;-73
2021/12/17 13:12:05;;;;;;;12.45;5.25;;;;;;;6.95;100.00;104163.22;4990145;28;20525;-72
2021/12/17 13:14:48;;;;;;;10.48;5.13;;;;;;;6.96;100.00;104170.31;4989756;28;20141;-73
2021/12/17 13:17:52;;;;;;;10.30;4.95;;;;;;;6.97;100.00;104169.50;4992352;28;20140;-73
2021/12/17 13:20:43;;;;;;;11.33;5.50;;;;;;;7.05;100.00;104167.13;4993493;28;20058;-73
2021/12/17 13:23:13;;;;;;;10.88;4.88;;;;;;;7.04;100.00;104170.63;4988158;28;20383;-73
2021/12/17 13:25:45;;;;;;;10.60;4.85;;;;;;;7.13;100.00;104167.38;4988942;28;20046;-71
2021/12/17 13:28:17;;;;;;;9.63;4.15;;;;;;;7.11;100.00;104167.31;4994330;28;20046;-70
2021/12/17 13:30:49;;;;;;;8.77;4.03;;;;;;;6.99;100.00;104159.81;4993444;28;20606;-71
2021/12/17 13:33:19;;;;;;;8.02;4.20;;;;;;;7.00;100.00;104164.28;4991043;28;20508;-71
2021/12/17 13:35:50;;;;;;;9.40;4.47;;;;;;;6.96;100.00;104161.47;4993209;28;20091;-71
2021/12/17 13:38:21;;;;;;;7.75;3.35;;;;;;;7.03;100.00;104153.78;4991934;28;20058;-71
2021/12/17 13:40:53;;;;;;;7.40;3.42;;;;;;;7.01;100.00;104158.13;4993496;28;20061;-71
2021/12/17 13:43:27;;;;;;;7.53;3.35;;;;;;;7.01;100.00;104159.88;4990565;28;20124;-71
2021/12/17 13:46:05;;;;;;;7.85;3.17;;;;;;;7.00;100.00;104163.38;4979302;28;22100;-71
2021/12/17 13:48:36;;;;;;;6.50;3.15;;;;;;;6.94;100.00;104160.50;4987787;28;20058;-71
2021/12/17 13:51:07;;;;;;;8.68;3.90;;;;;;;6.94;100.00;104158.75;4991469;28;20137;-71